»·PEaware :: SWA4813 KTUS-KSAN

SWA4813 :: KTUS-KSAN

FLIGHT INFORMATION

Flight Status: Arrived
Operator:
Southwest Airlines
More flights by this operator :: More flights under this callsign
Pilot: Matthew M. (8235)
Aircraft: BOEING 737-200
(B732)
More flights by this aircraft type
Origin: KTUS Tucson Intl
United States
Destination: KSAN San Diego Intl-Lindbergh
United States
More flights between these airports :: More routes between these airports
Route: +BURRO4 GBN J2 HOGGZ LUCKI1
File this flight plan on PilotEdge
Remarks: PBN / A1B2 DOF / 180113 EET / KZLA0026 OPR / SWA
Altitude:
(Current/Filed)
28,000ft
Speed:
(Current/Filed)
442kts
Departed: 13-Jan-18 01:04 PM
Arrived: 13-Jan-18 02:07 PM
Distance/Time
Traveled:
319nm/1:03
Distance/Time
To Go:
Arrived

Flight Plot

Page will automatically refresh every two minutes.

Flight plan parsing failed; only flown route is shown


Map Options




Map Legend


Flown Route
Filed Route
Departure Airport
Arrival Airport
Navaid (VOR, NDB)
Fix

Horizontal Profiles

Position Reports

Time Latitude Longitude Heading Altitude Ground
Speed
13-Jan-18 12:45 32.118456 -110.936421 48 2598ft 0kts
13-Jan-18 12:46 32.118456 -110.936421 48 2598ft 0kts
13-Jan-18 12:47 32.118456 -110.936421 48 2598ft 0kts
13-Jan-18 12:48 32.118456 -110.936421 48 2598ft 0kts
13-Jan-18 12:49 32.118456 -110.936421 48 2598ft 0kts
13-Jan-18 12:50 32.118456 -110.936421 48 2598ft 0kts
13-Jan-18 12:51 32.118456 -110.936421 48 2598ft 0kts
13-Jan-18 12:52 32.118456 -110.936421 48 2598ft 0kts
13-Jan-18 12:53 32.118456 -110.936421 48 2598ft 0kts
13-Jan-18 12:54 32.118456 -110.936421 48 2598ft 0kts
13-Jan-18 12:55 32.118456 -110.936421 48 2598ft 0kts
13-Jan-18 12:56 32.118456 -110.936421 48 2598ft 0kts
13-Jan-18 12:57 32.118456 -110.936421 48 2598ft 0kts
13-Jan-18 12:58 32.118456 -110.936421 48 2598ft 0kts
13-Jan-18 12:59 32.118456 -110.936421 48 2598ft 0kts
13-Jan-18 13:00 32.118456 -110.936421 48 2598ft 0kts
13-Jan-18 13:01 32.118510 -110.936443 192 2598ft 0kts
13-Jan-18 13:02 32.118510 -110.936443 192 2598ft 0kts
13-Jan-18 13:03 32.118510 -110.936443 192 2598ft 0kts
13-Jan-18 13:04 32.118097 -110.936873 247 2598ft 10kts
13-Jan-18 13:05 32.120927 -110.940615 315 2598ft 10kts
13-Jan-18 13:06 32.120594 -110.942123 316 2598ft 22kts
13-Jan-18 13:07 32.124289 -110.946673 202 2598ft 2kts
13-Jan-18 13:08 32.124056 -110.946831 216 2598ft 0kts
13-Jan-18 13:09 32.123921 -110.946965 220 2598ft 9kts
13-Jan-18 13:10 32.118542 -110.942228 134 2599ft 101kts
13-Jan-18 13:11 32.093100 -110.912928 135 3685ft 152kts
13-Jan-18 13:12 32.062794 -110.875253 137 5098ft 172kts
13-Jan-18 13:13 32.018823 -110.880927 223 6094ft 225kts
13-Jan-18 13:14 31.974028 -110.943253 255 7666ft 275kts
13-Jan-18 13:15 31.996077 -111.023247 298 9956ft 286kts
13-Jan-18 13:16 32.033559 -111.103162 299 11911ft 304kts
13-Jan-18 13:17 32.077081 -111.191096 307 12977ft 347kts
13-Jan-18 13:18 32.138031 -111.273325 312 14933ft 354kts
13-Jan-18 13:19 32.200761 -111.355605 312 16584ft 362kts
13-Jan-18 13:20 32.265641 -111.440610 312 18040ft 370kts
13-Jan-18 13:21 32.322163 -111.533711 304 19306ft 377kts
13-Jan-18 13:22 32.378159 -111.632728 304 20498ft 383kts
13-Jan-18 13:23 32.434579 -111.733080 303 21572ft 388kts
13-Jan-18 13:24 32.491939 -111.835412 303 22546ft 393kts
13-Jan-18 13:25 32.548280 -111.936203 303 23428ft 397kts
13-Jan-18 13:26 32.606591 -112.040803 303 24235ft 400kts
13-Jan-18 13:27 32.665781 -112.147276 303 24966ft 404kts
13-Jan-18 13:28 32.725129 -112.254341 303 25629ft 407kts
13-Jan-18 13:29 32.783741 -112.360383 303 26211ft 410kts
13-Jan-18 13:30 32.843813 -112.469377 303 26741ft 413kts
13-Jan-18 13:31 32.904235 -112.579332 303 27212ft 416kts
13-Jan-18 13:32 32.946507 -112.698332 270 27600ft 423kts
13-Jan-18 13:33 32.934739 -112.829821 263 27971ft 427kts
13-Jan-18 13:34 32.916901 -112.966041 262 27975ft 438kts
13-Jan-18 13:35 32.898463 -113.101363 262 27973ft 446kts
13-Jan-18 13:36 32.879070 -113.242133 262 27972ft 452kts
13-Jan-18 13:37 32.859650 -113.381928 262 27971ft 456kts
13-Jan-18 13:38 32.839503 -113.525724 262 27971ft 460kts
13-Jan-18 13:39 32.819279 -113.668829 261 27968ft 463kts
13-Jan-18 13:40 32.799132 -113.810192 261 27964ft 466kts
13-Jan-18 13:41 32.778355 -113.955953 264 27960ft 467kts
13-Jan-18 13:42 32.776294 -114.100679 273 27965ft 467kts
13-Jan-18 13:43 32.782047 -114.247809 273 27962ft 469kts
13-Jan-18 13:44 32.792292 -114.394948 285 27969ft 468kts
13-Jan-18 13:45 32.829002 -114.536518 288 27960ft 469kts
13-Jan-18 13:46 32.866877 -114.675252 288 27963ft 469kts
13-Jan-18 13:47 32.876729 -114.806270 270 27963ft 471kts
13-Jan-18 13:48 32.874228 -114.953947 269 27951ft 460kts
13-Jan-18 13:49 32.871018 -115.092767 269 27952ft 424kts
13-Jan-18 13:50 32.867868 -115.221545 269 27953ft 395kts
13-Jan-18 13:51 32.864014 -115.339730 264 27962ft 372kts
13-Jan-18 13:52 32.848741 -115.455799 262 24142ft 430kts
13-Jan-18 13:53 32.828291 -115.586047 260 21395ft 428kts
13-Jan-18 13:54 32.807356 -115.713724 260 19548ft 413kts
13-Jan-18 13:55 32.786795 -115.839389 262 19249ft 398kts
13-Jan-18 13:56 32.776566 -115.964618 266 19255ft 389kts
13-Jan-18 13:57 32.767320 -116.086575 266 18337ft 383kts
13-Jan-18 13:58 32.758616 -116.200376 266 17171ft 338kts
13-Jan-18 13:59 32.750642 -116.304043 265 14099ft 323kts
13-Jan-18 14:00 32.743220 -116.399628 265 11934ft 297kts
13-Jan-18 14:01 32.735981 -116.491597 266 10026ft 278kts
13-Jan-18 14:02 32.727624 -116.580203 265 8703ft 290kts
13-Jan-18 14:03 32.719710 -116.663491 265 8252ft 260kts
13-Jan-18 14:04 32.713506 -116.742195 265 7179ft 260kts
13-Jan-18 14:05 32.704617 -116.823619 252 6047ft 256kts
13-Jan-18 14:06 32.683509 -116.894941 251 5180ft 236kts
13-Jan-18 14:07 32.677611 -116.958721 286 4564ft 190kts
13-Jan-18 14:08 32.691467 -117.016804 288 3120ft 188kts
13-Jan-18 14:09 32.703509 -117.065815 285 1984ft 149kts
13-Jan-18 14:10 32.713455 -117.106924 286 1700ft 131kts
13-Jan-18 14:11 32.723474 -117.148103 286 777ft 135kts
13-Jan-18 14:12 32.733010 -117.187442 285 22ft 110kts
13-Jan-18 14:13 32.734872 -117.198524 208 19ft 6kts
13-Jan-18 14:14 32.734330 -117.197058 107 18ft 15kts
13-Jan-18 14:15 32.732284 -117.195133 285 19ft 12kts
13-Jan-18 14:16 32.732577 -117.195505 311 19ft 0kts

Navigation Log

Ident Type
Flight plan parsing failed, navigation log unavailable